West Byfleet, United Kingdom
Current Conditions -  °F | °C
As of 5:20 PM on Thursday 23 Oct 2014 (Local Time) from EGLL Reporting Station
Broken Clouds Broken Clouds  
Wind Chill: 61°   Ceiling: 2100
Heat Index: 61°   Visibility: 6mi
Dew Point: 55°   Wind: 13mph
Humidity: 82%   Direction: 220°SW
Pressure: 30.06"   Gusts: NA
Location:  51.33°N, 0.51°W
Report Text: EGLL 231620Z 22011KT 9999 BKN021 16/13 Q1018
Loading
Personal Weather Stations






























Interactive Weather Map
Tropical Storm Tracking
New forecast layout! Learn more

10-Day Weather Forecast

Advertisements
Track Severe Weather on mobile